createdAt,value
2023-08-02T00:01:39.934Z,53061.81
2023-08-02T00:06:44.365Z,53061.81
2023-08-02T00:11:48.288Z,53093.84
2023-08-02T00:16:53.415Z,53099.84
2023-08-02T00:21:57.068Z,53049.81
2023-08-02T00:27:00.717Z,53087.84
2023-08-02T00:32:06.410Z,53073.84
2023-08-02T00:37:10.881Z,53045.81
2023-08-02T00:42:14.543Z,53047.81
2023-08-02T00:47:20.256Z,53015.81
2023-08-02T00:52:24.402Z,53031.81
2023-08-02T00:57:28.237Z,53087.84
2023-08-02T01:02:33.338Z,53065.84
2023-08-02T01:07:44.611Z,53115.84
2023-08-02T01:12:51.578Z,53135.84
2023-08-02T01:17:57.555Z,53095.84
2023-08-02T01:23:02.659Z,53081.84
2023-08-02T01:28:08.291Z,53069.84
2023-08-02T01:33:12.657Z,53121.84
2023-08-02T01:38:17.776Z,53097.84
2023-08-02T01:43:21.464Z,53073.84
2023-08-02T01:48:27.292Z,53073.84
2023-08-02T01:53:32.340Z,53123.84
2023-08-02T01:58:35.970Z,53115.84
2023-08-02T02:03:39.867Z,53163.84
2023-08-02T02:08:44.930Z,53161.84
2023-08-02T02:13:48.850Z,53125.84
2023-08-02T02:18:52.603Z,53155.84
2023-08-02T02:23:57.615Z,53095.84
2023-08-02T02:29:01.350Z,53147.84
2023-08-02T02:34:04.979Z,53141.84
2023-08-02T02:39:12.494Z,53153.84
2023-08-02T02:44:16.125Z,53131.84
2023-08-02T02:49:19.870Z,53103.84
2023-08-02T02:54:25.259Z,53107.84
2023-08-02T02:59:29.212Z,53097.84
2023-08-02T03:10:21.747Z,53127.84
2023-08-02T03:15:26.092Z,53081.84
2023-08-02T03:20:30.938Z,53101.84
2023-08-02T03:25:36.032Z,53081.84
2023-08-02T03:30:39.733Z,53061.81
2023-08-02T03:35:43.531Z,53133.84
2023-08-02T03:40:48.656Z,53041.81
2023-08-02T03:45:52.335Z,53037.81
2023-08-02T03:50:56.088Z,53027.81
2023-08-02T03:56:01.119Z,53047.81
2023-08-02T04:01:04.933Z,53011.81
2023-08-02T04:06:08.859Z,53041.81
2023-08-02T04:11:14.036Z,53059.81
2023-08-02T04:16:17.675Z,52995.81
2023-08-02T04:21:21.821Z,53013.81
2023-08-02T04:26:27.020Z,53011.81
2023-08-02T04:31:30.761Z,53003.81
2023-08-02T04:36:34.564Z,52971.81
2023-08-02T04:41:39.679Z,53015.81
2023-08-02T04:46:43.798Z,53033.81
2023-08-02T04:51:47.684Z,53021.81
2023-08-02T04:56:52.849Z,53065.84
2023-08-02T05:01:56.539Z,53079.84
2023-08-02T05:07:00.183Z,53057.81
2023-08-02T05:12:06.111Z,53073.84
2023-08-02T05:17:09.778Z,53131.84
2023-08-02T05:22:13.392Z,53095.84
2023-08-02T05:27:18.380Z,53131.84
2023-08-02T05:32:22.052Z,53153.84
2023-08-02T05:37:25.685Z,53113.84
2023-08-02T05:42:30.765Z,53129.84
2023-08-02T05:47:34.960Z,53175.84
2023-08-02T05:52:38.614Z,53129.84
2023-08-02T05:57:43.621Z,53213.88
2023-08-02T06:02:47.210Z,53333.91
2023-08-02T06:07:50.997Z,53457.94
2023-08-02T06:12:56.022Z,54030.19
2023-08-02T06:17:59.802Z,54514.47
2023-08-02T06:23:03.502Z,54826.66
2023-08-02T06:28:08.648Z,54754.63
2023-08-02T06:33:12.431Z,54840.69
2023-08-02T06:38:16.302Z,55451.16
2023-08-02T06:43:21.344Z,56342.00
2023-08-02T06:48:27.073Z,55359.06
2023-08-02T06:53:31.711Z,55585.28
2023-08-02T06:58:36.776Z,56253.91
2023-08-02T07:03:40.489Z,55617.28
2023-08-02T07:08:45.262Z,55138.91
2023-08-02T07:13:50.333Z,55289.00
2023-08-02T07:18:54.023Z,54146.25
2023-08-02T07:23:57.747Z,53541.97
2023-08-02T07:29:03.131Z,54002.19
2023-08-02T07:34:06.853Z,54666.56
2023-08-02T07:39:10.522Z,54386.38
2023-08-02T07:44:16.749Z,53714.03
2023-08-02T07:49:20.425Z,53385.91
2023-08-02T07:54:24.371Z,53155.84
2023-08-02T07:59:29.690Z,54014.19
2023-08-02T08:04:33.437Z,53545.97
2023-08-02T08:09:37.250Z,54212.28
2023-08-02T08:14:44.844Z,55679.34
2023-08-02T08:19:48.775Z,54758.63
2023-08-02T08:24:52.592Z,53976.16
2023-08-02T08:29:57.736Z,54372.38
2023-08-02T08:35:02.554Z,54706.59
2023-08-02T08:40:14.511Z,56023.69
2023-08-02T08:45:22.391Z,55651.31
2023-08-02T08:51:01.994Z,55210.94
2023-08-02T08:56:09.017Z,55152.91
2023-08-02T09:01:14.513Z,53784.06
2023-08-02T09:06:18.291Z,52593.75
2023-08-02T09:11:22.247Z,52669.75
2023-08-02T09:16:27.332Z,52479.72
2023-08-02T09:21:31.498Z,52461.72
2023-08-02T09:26:36.393Z,52937.81
2023-08-02T09:31:41.920Z,52927.78
2023-08-02T09:36:46.946Z,52943.81
2023-08-02T09:42:00.084Z,53055.81
2023-08-02T09:47:13.571Z,53105.84
2023-08-02T09:52:28.447Z,52901.78
2023-08-02T09:57:33.776Z,52827.78
2023-08-02T10:02:39.554Z,52993.81
2023-08-02T10:07:48.319Z,53041.81
2023-08-02T10:12:57.932Z,52925.78
2023-08-02T10:18:03.318Z,53003.81
2023-08-02T10:23:08.394Z,53143.84
2023-08-02T10:28:13.212Z,53409.94
2023-08-02T10:33:22.208Z,53239.88
2023-08-02T10:38:30.693Z,53169.84
2023-08-02T10:43:34.366Z,52905.78
2023-08-02T10:48:39.386Z,52935.81
2023-08-02T10:54:56.436Z,53089.84
2023-08-02T11:00:39.824Z,53143.84
2023-08-02T11:05:52.263Z,53021.81
2023-08-02T11:10:57.605Z,53035.81
2023-08-02T11:16:06.548Z,53287.88
2023-08-02T11:21:13.091Z,53235.88
2023-08-02T11:26:19.020Z,53193.88
2023-08-02T11:31:25.668Z,53203.88
2023-08-02T11:36:35.349Z,53233.88
2023-08-02T11:41:38.814Z,53229.88
2023-08-02T11:46:42.776Z,53241.88
2023-08-02T11:51:48.295Z,53337.91
2023-08-02T11:56:52.405Z,53562.00
2023-08-02T12:01:56.184Z,53409.94
2023-08-02T12:07:02.737Z,53221.88
2023-08-02T12:12:07.624Z,53249.88
2023-08-02T12:17:18.153Z,53319.91
2023-08-02T12:22:23.249Z,53491.97
2023-08-02T12:27:27.158Z,53451.94
2023-08-02T12:32:30.872Z,53443.94
2023-08-02T12:37:37.475Z,53173.84
2023-08-02T12:42:53.288Z,53283.88
2023-08-02T12:48:06.785Z,53341.91
2023-08-02T12:53:12.023Z,53221.88
2023-08-02T12:58:15.806Z,53197.88
2023-08-02T13:03:19.662Z,53221.88
2023-08-02T13:08:25.673Z,53730.06
2023-08-02T13:13:29.513Z,53537.97
2023-08-02T13:18:43.480Z,54544.47
2023-08-02T13:23:49.101Z,54248.31
2023-08-02T13:28:52.979Z,54668.56
2023-08-02T13:33:56.682Z,53169.84
2023-08-02T13:39:01.763Z,53976.16
2023-08-02T13:44:05.921Z,54502.44
2023-08-02T13:49:09.579Z,53996.19
2023-08-02T13:54:14.613Z,54328.34
2023-08-02T13:59:18.409Z,54418.41
2023-08-02T14:04:22.176Z,54850.69
2023-08-02T14:09:27.796Z,55018.81
2023-08-02T14:14:31.452Z,54686.56
2023-08-02T14:19:35.089Z,53786.06
2023-08-02T14:24:40.328Z,53197.88
2023-08-02T14:29:44.018Z,53187.88
2023-08-02T14:34:47.709Z,52721.75
2023-08-02T14:39:52.826Z,53303.91
2023-08-02T14:44:56.622Z,53347.91
2023-08-02T14:50:00.434Z,53568.00
2023-08-02T14:55:06.128Z,52855.78
2023-08-02T15:00:11.117Z,52705.75
2023-08-02T15:05:14.817Z,52911.78
2023-08-02T15:10:20.749Z,52985.81
2023-08-02T15:15:24.598Z,53021.81
2023-08-02T15:20:28.340Z,52833.78
2023-08-02T15:25:33.849Z,52801.78
2023-08-02T15:30:37.552Z,52687.75
2023-08-02T15:35:43.540Z,52505.72
2023-08-02T15:40:48.873Z,52237.72
2023-08-02T15:45:52.571Z,52209.72
2023-08-02T15:50:57.131Z,52217.72
2023-08-02T15:56:02.314Z,52497.72
2023-08-02T16:01:06.237Z,52445.72
2023-08-02T16:06:10.849Z,52245.72
2023-08-02T16:11:16.047Z,52237.72
2023-08-02T16:16:19.906Z,52299.72
2023-08-02T16:21:25.577Z,52307.72
2023-08-02T16:26:42.241Z,52351.72
2023-08-02T16:31:50.087Z,52365.72
2023-08-02T16:36:53.860Z,52237.72
2023-08-02T16:41:58.988Z,52173.69
2023-08-02T16:47:04.868Z,52181.69
2023-08-02T16:52:09.839Z,52039.69
2023-08-02T16:57:14.952Z,52043.69
2023-08-02T17:02:19.913Z,51973.69
2023-08-02T17:07:23.624Z,51965.69
2023-08-02T17:12:28.759Z,52007.69
2023-08-02T17:17:36.003Z,51979.69
2023-08-02T17:22:39.748Z,51983.69
2023-08-02T17:27:46.917Z,51965.69
2023-08-02T17:32:50.948Z,51993.69
2023-08-02T17:37:55.392Z,51883.72
2023-08-02T17:43:00.558Z,51859.72
2023-08-02T17:48:08.685Z,51833.72
2023-08-02T17:53:12.682Z,51825.72
2023-08-02T17:58:17.863Z,51857.72
2023-08-02T18:03:22.222Z,51823.72
2023-08-02T18:08:26.022Z,51805.72
2023-08-02T18:13:31.987Z,51793.72
2023-08-02T18:18:39.647Z,51799.72
2023-08-02T18:23:46.540Z,51785.72
2023-08-02T18:28:57.735Z,51801.72
2023-08-02T18:34:03.696Z,51777.72
2023-08-02T18:39:09.239Z,51759.72
2023-08-02T18:44:14.363Z,51735.72
2023-08-02T18:49:18.147Z,51817.72
2023-08-02T18:54:22.036Z,51743.72
2023-08-02T18:59:27.083Z,51713.72
2023-08-02T19:04:30.950Z,51775.72
2023-08-02T19:09:35.504Z,51707.72
2023-08-02T19:14:47.382Z,51755.72
2023-08-02T19:19:51.877Z,51729.72
2023-08-02T19:24:55.634Z,51731.72
2023-08-02T19:30:01.421Z,51697.72
2023-08-02T19:35:11.392Z,51753.72
2023-08-02T19:40:15.390Z,51737.72
2023-08-02T19:45:23.008Z,51713.72
2023-08-02T19:50:26.784Z,51739.72
2023-08-02T19:55:30.678Z,51733.72
2023-08-02T20:00:36.048Z,51757.72
2023-08-02T20:06:01.126Z,51693.72
2023-08-02T20:11:07.788Z,51713.72
2023-08-02T20:16:19.581Z,51705.72
2023-08-02T20:21:24.840Z,51653.72
2023-08-02T20:26:29.271Z,51657.72
2023-08-02T20:31:38.100Z,51593.72
2023-08-02T20:36:42.740Z,51637.72
2023-08-02T20:41:48.963Z,51621.72
2023-08-02T20:46:54.246Z,51601.72
2023-08-02T20:52:02.676Z,51587.72
2023-08-02T20:57:09.403Z,51643.72
2023-08-02T21:02:20.155Z,51625.72
2023-08-02T21:07:36.460Z,51599.72
2023-08-02T21:12:40.494Z,51629.72
2023-08-02T21:17:46.535Z,51611.72
2023-08-02T21:22:50.227Z,51613.72
2023-08-02T21:27:53.996Z,51621.72
2023-08-02T21:32:59.047Z,51621.72
2023-08-02T21:38:02.960Z,51637.72
2023-08-02T21:43:07.082Z,51645.72
2023-08-02T21:48:14.406Z,51597.72
2023-08-02T21:53:22.239Z,51615.72
2023-08-02T21:58:31.016Z,51657.72
2023-08-02T22:03:39.975Z,51633.72
2023-08-02T22:08:44.808Z,51621.72
2023-08-02T22:13:49.280Z,51641.72
2023-08-02T22:18:54.475Z,51601.72
2023-08-02T22:23:58.265Z,51669.72
2023-08-02T22:29:01.957Z,51671.72
2023-08-02T22:34:07.043Z,51663.72
2023-08-02T22:39:10.688Z,51679.72
2023-08-02T22:44:14.409Z,51669.72
2023-08-02T22:50:19.392Z,51705.72
2023-08-02T22:54:43.390Z,51721.72
2023-08-02T22:59:47.976Z,51721.72
2023-08-02T23:04:54.060Z,51731.72
2023-08-02T23:10:01.511Z,51713.72
2023-08-02T23:15:06.142Z,51693.72
2023-08-02T23:20:38.268Z,51703.72
2023-08-02T23:25:41.965Z,51717.72
2023-08-02T23:30:45.715Z,51739.72
2023-08-02T23:35:50.827Z,51713.72
2023-08-02T23:40:54.528Z,51691.72
2023-08-02T23:45:58.317Z,51717.72
2023-08-02T23:51:03.401Z,51721.72
2023-08-02T23:56:07.063Z,51723.72
